Itasca, IL

10:24 CDT le 24 octobre 2014 (GMT -0500)
Du Page | Change Station
CLOSE
Current Station
Aéroport
Location: Chicago DuPage,
Altitude: 758 ft
Stations météo à proximité

Alt. 758 ft 41.90 °N, 88.25 °W | Updated 32 minutes ago

Partiellement nuageux
Partiellement nuageux
57 ° F
Paraît 57 ° F
N
0
Vent Variable Vent de Nord

Aujourd'hui
Haut(e) -- | Bas -- ° F
--% Risque de précip.
Hier
Haut(e) -- | Bas -- ° F
Precip. -- pouce
7:15 AM 5:56 PM
Nouvelle lune, 1% visible
Pression 30.07 pouce
Visibilité 8.0 Miles terrestres
Nuages Ciel dégagé
Point de rosée 48 ° F
Humidité 72%
Précipitations 0.00 pouce
Profondeur de la couche neigeuse Non disponible.
UV 2 sur 12
Pollen 1.10 sur 12
Ozone Bon
PM2.5 Moyen
Flu Activity No Activity
METAR KDPA 241452Z 00000KT 8SM CLR 14/09 A3007 RMK AO2 SLP181 T01390089 51004

More Conditions Fewer Conditions

Pression 30.07 pouce
Visibilité 8.0 Miles terrestres
Nuages Ciel dégagé
Point de rosée 48 ° F
Humidité 72%
Précipitations 0.00 pouce
Profondeur de la couche neigeuse Non disponible.
UV 2 sur 12
Pollen 1.10 sur 12
Ozone Bon
PM2.5 Moyen
Flu Activity No Activity
METAR KDPA 241452Z 00000KT 8SM CLR 14/09 A3007 RMK AO2 SLP181 T01390089 51004

More Conditions Fewer Conditions

10-Day Weather Forecast

Almanac

Astronomie

Oct. 24, 2014 Lever Coucher
Temps réel 07:15 CDT 17:56 CDT
Crépuscule civil 06:46 CDT 18:25 CDT
Crépuscule nautique 06:13 CDT 18:57 CDT
Crépuscule astronomique 05:41 CDT 19:30 CDT
Lune 07:54 CDT 18:35 CDT
Durée de lumière visible 11h 38m
Longueur du jour
10h 41m
Tomorrow will be 2m 36s shorter.
Nouvelle lune, 1% of the Moon is Illuminated
Aujourd'hui
Nouvelle lune
Oct 30
Premier quartier
Nov 6
Pleine lune
Nov 14
Dernier quartier
Nov 22
Nouveau

Extrêmes aujourd'hui

State Highs State Lows

Community

WunderPhotos

Upload Photos

1,764,588 Photos téléchargées !

WunderBlogs® & News

By Dr. Jeff Masters
Director of Meteorology, Weather Underground
By Kari Strenfel
Meteorologist, Weather Underground
By Christopher C. Burt
Weather Historian, Weather Underground
October 24, 2014
October 24, 2014
October 24, 2014

Nearby

Qualité de l'air

  Qualité de l'air Indice de la qualité de l'air Polluant
Hier Moyen
PM2.5
Hier Bon
OZONE
Actuel Moyen
PM2.5
Actuel Bon
OZONE
vendredi Moyen
PM2.5
samedi Bon
PM2.5
dimanche Bon
PM2.5
lundi Moyen
PM2.5
mardi Bon
PM2.5
mercredi Bon
PM2.5

Épaisseur de neige

Station Depth Altitude
Pas de nouvelles chutes de neige

Activité sismique

Ville Distance Mag. Time & Date
No recent earthquake activity has been reported nearby.
Minimum magnitude displayed is 2.5.

Températures des eaux côtières

Lieu Température
Aucun rapport de station

Stations météo à proximité